Arita Maru — JD2435 — position and weather

sailwx.info

Track history (hours):
 
Tides and Currents Weather Stations Pressure Air Temp Water Temp Dewpoint Dewpoint Depression Visibility Wind Speed Wind Dir Waves Ship Positions

Arita Maru

Last reported at 2017-Oct-06 23:12 UTC. Time now 2017-Oct-20 17:44 UTC.
Position N 34°35' E 134°53'.
Warning: this ship's position is 13 days out of date.

Length 73 m; draft 4.3 m.

Type: Cargo ship. MMSI: 431000234.

Date/timePositionNaut miles runAvg speedWind from/ knotsBaromVisibWave heightAir tempDewpointWater temp
2017-Oct-06 23:12N 34°35' E 134°53'315.7
2017-Oct-06 22:59N 34°36' E 134°56'714.2
2017-Oct-06 22:30N 34°36' E 135°05'713.4
2017-Oct-06 22:00N 34°36' E 135°13'713.1
2017-Oct-06 21:31N 34°37' E 135°21'611.4
2017-Oct-06 21:00N 34°39' E 135°27'0 0.1
2017-Oct-06 16:36N 34°39' E 135°28'0 0.0
2017-Oct-06 16:30N 34°39' E 135°28'0 0.0
2017-Oct-06 16:00N 34°39' E 135°28'0 0.0
2017-Oct-06 15:18N 34°39' E 135°28'0 0.0
2017-Oct-06 15:00N 34°39' E 135°28'0 0.0
2017-Oct-06 14:30N 34°39' E 135°28'0 0.0
2017-Oct-06 13:54N 34°39' E 135°28'0 0.0
2017-Oct-06 13:30N 34°39' E 135°28'0 0.0
2017-Oct-06 13:00N 34°39' E 135°28'0 0.0
2017-Oct-06 12:30N 34°39' E 135°28'0 0.0
2017-Oct-06 12:00N 34°39' E 135°28'0 0.1
2017-Oct-06 11:30N 34°39' E 135°28'0 0.0
2017-Oct-06 07:42N 34°39' E 135°28'0 0.0
2017-Oct-06 07:24N 34°39' E 135°28'0 0.0
2017-Oct-06 07:00N 34°39' E 135°28'0 0.0
2017-Oct-06 06:30N 34°39' E 135°28'0 0.0
2017-Oct-06 05:48N 34°39' E 135°28'0 0.0
2017-Oct-06 05:30N 34°39' E 135°28'0 0.0
2017-Oct-06 04:54N 34°39' E 135°28'0 0.0
2017-Oct-06 04:30N 34°39' E 135°28'0 0.0
2017-Oct-06 04:00N 34°39' E 135°28'0 0.0
2017-Oct-06 03:30N 34°39' E 135°28'0 0.0
2017-Oct-06 02:48N 34°39' E 135°28'0 0.0
2017-Oct-06 02:24N 34°39' E 135°28'0 0.0
2017-Oct-06 02:00N 34°39' E 135°28'0 0.0
2017-Oct-06 01:30N 34°39' E 135°28'0 0.0
2017-Oct-06 00:48N 34°39' E 135°28'0 0.0
2017-Oct-06 00:24N 34°39' E 135°28'0 0.0
2017-Oct-06 00:00N 34°39' E 135°28'0 0.0
2017-Oct-05 23:30N 34°39' E 135°28'0 0.0
2017-Oct-05 23:00N 34°39' E 135°28'1 2.1
2017-Oct-05 22:30N 34°39' E 135°26'4 8.0
2017-Oct-05 22:00N 34°37' E 135°22'0 0.7
2017-Oct-05 21:27N 34°37' E 135°22'0 0.0
2017-Oct-05 20:51N 34°37' E 135°22'0 0.0
2017-Oct-05 20:27N 34°37' E 135°22'0 0.0
2017-Oct-05 19:51N 34°37' E 135°22'0 0.0
2017-Oct-05 18:27N 34°37' E 135°22'0 0.0
2017-Oct-05 17:57N 34°37' E 135°22'0 0.0
2017-Oct-05 17:14N 34°37' E 135°22'1 6.0
2017-Oct-05 17:00N 34°36' E 135°20'  
2017-Sep-28 23:14N 34°59' E 139°30'210.9
2017-Sep-28 23:01N 35°00' E 139°32'611.8
2017-Sep-28 22:30N 35°04' E 139°38'613.0
2017-Sep-28 22:01N 35°08' E 139°44'612.7
2017-Sep-28 21:30N 35°14' E 139°46'612.5
2017-Sep-28 21:01N 35°20' E 139°43'611.3
2017-Sep-28 20:31N 35°25' E 139°44'510.3
2017-Sep-28 20:00N 35°24' E 139°51'0 0.4
2017-Sep-28 19:20N 35°24' E 139°50'0 0.0
2017-Sep-28 18:59N 35°24' E 139°50'0 0.0
2017-Sep-28 18:26N 35°24' E 139°50'0 0.0
2017-Sep-28 17:59N 35°24' E 139°50'0 0.0
2017-Sep-28 17:29N 35°24' E 139°50'0 0.0
2017-Sep-28 16:56N 35°24' E 139°50'0 0.0
2017-Sep-28 16:29N 35°24' E 139°50'0 0.0
2017-Sep-28 15:56N 35°24' E 139°50'0 0.0
2017-Sep-28 15:29N 35°24' E 139°50'0 0.0
2017-Sep-28 14:59N 35°24' E 139°50'0 0.0
2017-Sep-28 13:56N 35°24' E 139°50'0 0.0
2017-Sep-28 13:29N 35°24' E 139°50'1 1.7
2017-Sep-28 12:59N 35°23' E 139°51'3 0.1
2017-Sep-27 09:00N 35°22' E 139°54'3 7.0
2017-Sep-27 08:30N 35°24' E 139°51'510.6
2017-Sep-27 08:00N 35°30' E 139°52'611.6
2017-Sep-27 07:30N 35°34' E 139°56'4 0.5
2017-Sep-26 23:26N 35°37' E 139°58'  
Track history (hours):
 
Tides and Currents Weather Stations Pressure Air Temp Water Temp Dewpoint Dewpoint Depression Visibility Wind Speed Wind Dir Waves Ship Positions

Arita Maru

Last reported at 2017-Oct-06 23:12 UTC. Time now 2017-Oct-20 17:44 UTC.
Position N 34°35' E 134°53'.
Warning: this ship's position is 13 days out of date.

Length 73 m; draft 4.3 m.

Type: Cargo ship. MMSI: 431000234.

Date/timePositionNaut miles runAvg speedWind from/ knotsBaromVisibWave heightAir tempDewpointWater temp
2017-Oct-06 23:12N 34°35' E 134°53'315.7
2017-Oct-06 22:59N 34°36' E 134°56'714.2
2017-Oct-06 22:30N 34°36' E 135°05'713.4
2017-Oct-06 22:00N 34°36' E 135°13'713.1
2017-Oct-06 21:31N 34°37' E 135°21'611.4
2017-Oct-06 21:00N 34°39' E 135°27'0 0.1
2017-Oct-06 16:36N 34°39' E 135°28'0 0.0
2017-Oct-06 16:30N 34°39' E 135°28'0 0.0
2017-Oct-06 16:00N 34°39' E 135°28'0 0.0
2017-Oct-06 15:18N 34°39' E 135°28'0 0.0
2017-Oct-06 15:00N 34°39' E 135°28'0 0.0
2017-Oct-06 14:30N 34°39' E 135°28'0 0.0
2017-Oct-06 13:54N 34°39' E 135°28'0 0.0
2017-Oct-06 13:30N 34°39' E 135°28'0 0.0
2017-Oct-06 13:00N 34°39' E 135°28'0 0.0
2017-Oct-06 12:30N 34°39' E 135°28'0 0.0
2017-Oct-06 12:00N 34°39' E 135°28'0 0.1
2017-Oct-06 11:30N 34°39' E 135°28'0 0.0
2017-Oct-06 07:42N 34°39' E 135°28'0 0.0
2017-Oct-06 07:24N 34°39' E 135°28'0 0.0
2017-Oct-06 07:00N 34°39' E 135°28'0 0.0
2017-Oct-06 06:30N 34°39' E 135°28'0 0.0
2017-Oct-06 05:48N 34°39' E 135°28'0 0.0
2017-Oct-06 05:30N 34°39' E 135°28'0 0.0
2017-Oct-06 04:54N 34°39' E 135°28'0 0.0
2017-Oct-06 04:30N 34°39' E 135°28'0 0.0
2017-Oct-06 04:00N 34°39' E 135°28'0 0.0
2017-Oct-06 03:30N 34°39' E 135°28'0 0.0
2017-Oct-06 02:48N 34°39' E 135°28'0 0.0
2017-Oct-06 02:24N 34°39' E 135°28'0 0.0
2017-Oct-06 02:00N 34°39' E 135°28'0 0.0
2017-Oct-06 01:30N 34°39' E 135°28'0 0.0
2017-Oct-06 00:48N 34°39' E 135°28'0 0.0
2017-Oct-06 00:24N 34°39' E 135°28'0 0.0
2017-Oct-06 00:00N 34°39' E 135°28'0 0.0
2017-Oct-05 23:30N 34°39' E 135°28'0 0.0
2017-Oct-05 23:00N 34°39' E 135°28'1 2.1
2017-Oct-05 22:30N 34°39' E 135°26'4 8.0
2017-Oct-05 22:00N 34°37' E 135°22'0 0.7
2017-Oct-05 21:27N 34°37' E 135°22'0 0.0
2017-Oct-05 20:51N 34°37' E 135°22'0 0.0
2017-Oct-05 20:27N 34°37' E 135°22'0 0.0
2017-Oct-05 19:51N 34°37' E 135°22'0 0.0
2017-Oct-05 18:27N 34°37' E 135°22'0 0.0
2017-Oct-05 17:57N 34°37' E 135°22'0 0.0
2017-Oct-05 17:14N 34°37' E 135°22'1 6.0
2017-Oct-05 17:00N 34°36' E 135°20'  
2017-Sep-28 23:14N 34°59' E 139°30'210.9
2017-Sep-28 23:01N 35°00' E 139°32'611.8
2017-Sep-28 22:30N 35°04' E 139°38'613.0
2017-Sep-28 22:01N 35°08' E 139°44'612.7
2017-Sep-28 21:30N 35°14' E 139°46'612.5
2017-Sep-28 21:01N 35°20' E 139°43'611.3
2017-Sep-28 20:31N 35°25' E 139°44'510.3
2017-Sep-28 20:00N 35°24' E 139°51'0 0.4
2017-Sep-28 19:20N 35°24' E 139°50'0 0.0
2017-Sep-28 18:59N 35°24' E 139°50'0 0.0
2017-Sep-28 18:26N 35°24' E 139°50'0 0.0
2017-Sep-28 17:59N 35°24' E 139°50'0 0.0
2017-Sep-28 17:29N 35°24' E 139°50'0 0.0
2017-Sep-28 16:56N 35°24' E 139°50'0 0.0
2017-Sep-28 16:29N 35°24' E 139°50'0 0.0
2017-Sep-28 15:56N 35°24' E 139°50'0 0.0
2017-Sep-28 15:29N 35°24' E 139°50'0 0.0
2017-Sep-28 14:59N 35°24' E 139°50'0 0.0
2017-Sep-28 13:56N 35°24' E 139°50'0 0.0
2017-Sep-28 13:29N 35°24' E 139°50'1 1.7
2017-Sep-28 12:59N 35°23' E 139°51'3 0.1
2017-Sep-27 09:00N 35°22' E 139°54'3 7.0
2017-Sep-27 08:30N 35°24' E 139°51'510.6
2017-Sep-27 08:00N 35°30' E 139°52'611.6
2017-Sep-27 07:30N 35°34' E 139°56'4 0.5
2017-Sep-26 23:26N 35°37' E 139°58'  

Dump ship's entire track history